Latest Weather Observations for Cape Grim

IDT60801

Issued at 12:35 pm EDT Wednesday 22 October 2014 (issued every 30 minutes, with the page automatically refreshed every 10 minutes)

About weather observations | Map of weather stations | Latest weather observations for TAS | Other Formats
Station Details ID: 091331 Name: CAPE GRIM Lat: -40.68 Lon: 144.69 Height: 86.0 m
Data from the previous 72 hours. | See also: Recent months at Cape Grim
Date/Time
EDT
Temp
°C
App
Temp
°C
Dew
Point
Rel
Hum
%
Delta-T
°C
Wind Press
QNH
hPa
Press
MSL
hPa
Rain
since 9 am
mm
Dir
 
Spd
km/h
Gust
km/h
Spd
kts
Gust
kts
22/12:30pm 15.2 6.3 11.8 80 1.8 ENE 50 61 27 33 1017.3 1017.4 0.0
22/12:00pm 15.0 6.0 11.6 80 1.8 E 50 57 27 31 1017.8 1017.8 0.0
22/11:30am 14.5 4.6 11.1 80 1.8 E 54 65 29 35 1018.0 1018.0 0.0
22/11:00am 15.2 5.4 11.4 78 2.0 ENE 54 65 29 35 1018.5 1018.5 0.0
22/10:30am 15.1 5.3 11.5 79 1.9 ENE 54 63 29 34 1019.0 1019.0 0.0
22/10:00am 14.8 5.7 11.4 80 1.8 E 50 61 27 33 1019.4 1019.4 0.0
22/09:30am 14.5 5.1 11.5 82 1.6 E 52 65 28 35 1019.4 1019.4 0.0
22/09:00am 14.3 4.5 11.6 84 1.4 E 54 65 29 35 1019.1 1019.1 0.0
22/08:30am 13.6 4.1 11.1 85 1.3 E 52 63 28 34 1019.5 1019.5 0.0
22/08:00am 13.1 3.6 11.0 87 1.1 E 52 63 28 34 1019.6 1019.6 0.0
22/07:30am 12.6 3.0 10.8 89 0.9 E 52 63 28 34 1019.7 1019.7 0.0
22/07:00am 12.4 3.1 10.6 89 0.9 E 50 57 27 31 1019.5 1019.5 0.0
22/06:30am 12.5 2.4 10.4 87 1.1 E 54 65 29 35 1019.7 1019.7 0.0
22/06:00am 12.5 2.4 10.4 87 1.1 E 54 67 29 36 1019.6 1019.6 0.0
22/05:30am 12.5 2.4 10.4 87 1.1 E 54 63 29 34 1019.6 1019.6 0.0
22/05:00am 12.4 1.8 10.1 86 1.2 E 56 70 30 38 1019.7 1019.7 0.0
22/04:30am 12.5 1.8 10.4 87 1.1 E 57 70 31 38 1019.7 1019.7 0.0
22/04:00am 12.4 1.9 10.3 87 1.1 E 56 70 30 38 1020.3 1020.3 0.0
22/03:30am 12.5 2.0 10.4 87 1.1 E 56 69 30 37 1020.8 1020.8 0.0
22/03:00am 12.5 1.8 10.2 86 1.2 E 57 70 31 38 1021.2 1021.2 0.0
22/02:30am 12.4 1.8 10.1 86 1.2 E 56 65 30 35 1021.6 1021.6 0.0
22/02:00am 12.4 1.8 10.0 85 1.2 E 56 69 30 37 1022.1 1022.1 0.0
22/01:30am 12.4 1.8 9.8 84 1.3 E 56 72 30 39 1022.7 1022.8 0.0
22/01:00am 12.3 1.4 9.7 84 1.3 E 57 69 31 37 1023.0 1023.1 0.0
22/12:30am 12.3 1.4 9.7 84 1.3 E 57 69 31 37 1023.4 1023.5 0.0
22/12:00am 12.3 1.4 9.5 83 1.4 E 57 69 31 37 1023.9 1024.0 0.0
 
Date/Time
EDT
Temp
°C
App
Temp
°C
Dew
Point
Rel
Hum
%
Delta-T
°C
Wind Press
QNH
hPa
Press
MSL
hPa
Rain
since 9 am
mm
Dir
 
Spd
km/h
Gust
km/h
Spd
kts
Gust
kts
21/11:30pm 12.4 1.7 9.6 83 1.4 E 56 69 30 37 1024.3 1024.4 0.0
21/11:00pm 12.4 1.1 9.6 83 1.4 E 59 70 32 38 1024.2 1024.3 0.0
21/10:30pm 12.5 1.5 9.3 81 1.6 ENE 57 72 31 39 1024.8 1024.9 0.0
21/10:20pm 12.3 1.5 9.1 81 1.6 ENE 56 74 30 40 1024.9 1025.0 0.0
21/10:00pm 12.4 2.0 9.1 80 1.7 ENE 54 67 29 36 1025.1 1025.2 0.0
21/09:30pm 12.4 2.0 9.2 81 1.6 ENE 54 65 29 35 1025.4 1025.5 0.0
21/09:00pm 12.3 2.2 9.1 81 1.6 ENE 52 65 28 35 1025.4 1025.5 0.0
21/08:30pm 12.4 1.4 9.1 80 1.7 E 57 72 31 39 1024.8 1024.9 0.0
21/08:00pm 12.5 1.5 9.0 79 1.8 ENE 57 69 31 37 1025.1 1025.2 0.0
21/07:30pm 12.6 2.1 8.9 78 1.9 ENE 54 67 29 36 1025.7 1025.8 0.0
21/07:00pm 12.9 2.4 9.0 77 2.0 ENE 54 67 29 36 1025.6 1025.7 0.0
21/06:34pm 13.2 3.4 10.0 81 1.7 E 52 70 28 38 1025.6 1025.7 0.0
21/06:30pm 13.2 3.0 10.0 81 1.6 E 54 67 29 36 1025.6 1025.7 0.0
21/06:16pm 13.4 3.1 9.8 79 1.9 ENE 54 72 29 39 1025.5 1025.6 0.0
21/06:00pm 13.6 2.3 9.6 77 2.0 E 59 74 32 40 1025.6 1025.7 0.0
21/05:32pm 14.0 2.8 9.8 76 2.2 E 59 78 32 42 1025.8 1025.9 0.0
21/05:30pm 13.9 2.2 9.5 75 2.3 E 61 78 33 42 1025.6 1025.7 0.0
21/05:00pm 14.1 2.8 9.5 74 2.4 E 59 70 32 38 1025.7 1025.8 0.0
21/04:53pm 14.5 3.7 10.1 75 2.3 E 57 76 31 41 1025.8 1025.9 0.0
21/04:30pm 14.5 3.6 9.7 73 2.5 E 57 74 31 40 1026.3 1026.4 0.0
21/04:00pm 14.8 4.2 9.8 72 2.6 ENE 56 70 30 38 1027.0 1027.1 0.0
21/03:30pm 14.6 2.8 9.0 69 2.9 E 61 76 33 41 1026.8 1026.9 0.0
21/03:26pm 14.9 3.6 9.3 69 2.9 E 59 78 32 42 1026.7 1026.8 0.0
21/03:00pm 14.7 2.9 8.9 68 2.9 E 61 78 33 42 1026.9 1027.0 0.0
21/02:52pm 14.8 3.3 8.7 67 3.1 E 59 78 32 42 1026.8 1026.9 0.0
21/02:30pm 14.9 2.7 9.1 68 3.0 E 63 76 34 41 1027.2 1027.3 0.0
21/02:00pm 15.0 3.2 9.1 68 3.0 E 61 74 33 40 1027.6 1027.7 0.0
21/01:30pm 14.6 2.4 8.8 68 3.0 E 63 78 34 42 1028.0 1028.1 0.0
21/01:00pm 15.3 4.4 9.7 69 2.9 E 57 72 31 39 1028.6 1028.7 0.0
21/12:30pm 14.6 3.4 8.3 66 3.2 E 57 72 31 39 1028.9 1029.0 0.0
21/12:00pm 14.3 2.6 8.0 66 3.1 E 59 72 32 39 1029.2 1029.3 0.0
21/11:45am 14.5 3.6 8.7 68 2.9 E 56 74 30 40 1029.4 1029.5 0.0
21/11:30am 14.3 3.1 8.5 68 2.9 E 57 72 31 39 1029.4 1029.5 0.0
21/11:00am 14.4 3.3 7.9 65 3.2 E 56 69 30 37 1029.9 1029.9 0.0
21/10:30am 14.1 2.8 7.9 66 3.1 E 57 78 31 42 1029.8 1029.8 0.0
21/10:29am 13.8 2.4 7.6 66 3.1 E 57 78 31 42 1029.6 1029.7 0.0
21/10:00am 13.6 2.2 7.6 67 2.9 E 57 74 31 40 1029.8 1029.8 0.0
21/09:30am 13.5 2.8 8.1 70 2.7 E 54 70 29 38 1029.9 1029.9 0.0
21/09:00am 13.0 1.7 8.1 72 2.4 E 57 72 31 39 1029.5 1029.6 0.0
21/08:30am 12.5 1.1 7.4 71 2.5 E 57 72 31 39 1029.5 1029.6 0.0
21/08:00am 12.0 1.4 6.9 71 2.4 ENE 52 67 28 36 1029.8 1029.8 0.0
21/07:30am 11.5 0.1 6.6 72 2.3 ENE 56 65 30 35 1029.8 1029.8 0.0
21/07:00am 11.3 0.2 6.4 72 2.3 ENE 54 69 29 37 1029.8 1029.8 0.0
21/06:30am 11.0 0.5 5.7 70 2.5 ENE 50 65 27 35 1029.5 1029.6 0.0
21/06:00am 10.9 0.5 5.9 71 2.3 ENE 50 69 27 37 1029.2 1029.3 0.0
21/05:57am 10.5 0.0 5.5 71 2.3 ENE 50 69 27 37 1029.2 1029.3 0.0
21/05:30am 10.9 -0.3 5.9 71 2.3 ENE 54 61 29 33 1028.8 1028.9 0.0
21/05:01am 10.9 0.9 6.1 72 2.2 ENE 48 69 26 37 1029.0 1029.1 0.0
21/05:00am 11.0 1.1 6.4 73 2.2 ENE 48 61 26 33 1029.0 1029.1 0.0
21/04:30am 11.1 0.4 6.3 72 2.3 ENE 52 67 28 36 1029.3 1029.4 0.0
21/04:21am 11.2 1.2 6.1 71 2.4 ENE 48 67 26 36 1029.3 1029.4 0.0
21/04:00am 11.2 0.8 5.9 70 2.5 ENE 50 61 27 33 1029.6 1029.7 0.0
21/03:30am 11.0 0.5 5.7 70 2.5 ENE 50 65 27 35 1030.0 1030.0 0.0
21/03:27am 11.0 1.3 5.7 70 2.5 ENE 46 65 25 35 1030.0 1030.0 0.0
21/03:00am 10.8 0.7 5.8 71 2.3 ENE 48 59 26 32 1030.4 1030.4 0.0
21/02:30am 10.7 1.4 6.1 73 2.1 ENE 44 57 24 31 1030.5 1030.5 0.0
21/02:00am 11.1 1.4 6.0 71 2.4 ENE 46 61 25 33 1030.5 1030.5 0.0
21/01:30am 11.1 1.8 6.0 71 2.4 ENE 44 56 24 30 1031.3 1031.3 0.0
21/01:00am 11.3 2.4 6.8 74 2.1 ENE 43 56 23 30 1031.4 1031.4 0.0
21/12:30am 11.2 4.3 7.1 76 2.0 ENE 33 43 18 23 1032.1 1032.1 0.0
21/12:00am 11.1 3.6 6.5 73 2.2 ENE 35 44 19 24 1032.1 1032.1 0.0
 
Date/Time
EDT
Temp
°C
App
Temp
°C
Dew
Point
Rel
Hum
%
Delta-T
°C
Wind Press
QNH
hPa
Press
MSL
hPa
Rain
since 9 am
mm
Dir
 
Spd
km/h
Gust
km/h
Spd
kts
Gust
kts
20/11:30pm 10.7 3.1 5.9 72 2.2 ENE 35 44 19 24 1032.4 1032.5 0.0
20/11:00pm 10.4 3.9 6.4 76 1.9 ENE 30 39 16 21 1032.6 1032.7 0.0
20/10:30pm 9.2 4.4 5.8 79 1.6 E 20 28 11 15 1032.9 1033.0 0.0
20/10:00pm 7.9 3.0 3.9 76 1.7 E 19 26 10 14 1033.1 1033.2 0.0
20/09:30pm 8.3 3.4 3.9 74 1.9 E 19 20 10 11 1033.3 1033.4 0.0
20/09:00pm 8.4 2.8 3.5 71 2.1 E 22 26 12 14 1033.1 1033.2 0.0
20/08:30pm 8.2 3.0 2.7 68 2.3 E 19 22 10 12 1032.8 1032.9 0.0
20/08:00pm 8.4 3.2 2.6 67 2.4 E 19 24 10 13 1032.5 1032.6 0.0
20/07:30pm 9.0 3.9 3.0 66 2.6 E 19 22 10 12 1032.3 1032.4 0.0
20/07:00pm 10.0 4.8 3.7 65 2.7 ENE 20 26 11 14 1032.3 1032.4 0.0
20/06:30pm 10.7 5.5 3.3 60 3.2 ENE 20 24 11 13 1032.6 1032.7 0.0
20/06:00pm 11.3 5.5 4.3 62 3.1 ENE 24 32 13 17 1032.8 1032.9 0.0
20/05:30pm 11.5 5.6 3.8 59 3.4 ENE 24 33 13 18 1032.8 1032.9 0.0
20/05:00pm 11.6 5.5 2.9 55 3.8 ENE 24 32 13 17 1032.9 1033.0 0.0
20/04:30pm 12.0 5.1 2.7 53 4.1 ENE 28 35 15 19 1032.8 1032.9 0.0
20/04:00pm 12.1 5.0 3.3 55 3.9 ENE 30 41 16 22 1032.8 1032.9 0.0
20/03:30pm 12.1 4.6 3.3 55 3.9 ENE 32 37 17 20 1032.7 1032.8 0.0
20/03:00pm 12.0 4.2 1.9 50 4.3 ENE 32 41 17 22 1032.8 1032.9 0.0
20/02:30pm 12.2 4.4 2.9 53 4.1 ENE 33 43 18 23 1033.1 1033.2 0.0
20/02:00pm 12.4 5.4 4.1 57 3.7 ENE 30 39 16 21 1033.4 1033.5 0.0
20/01:30pm 12.2 5.3 2.4 51 4.3 NE 28 33 15 18 1033.7 1033.8 0.0
20/01:00pm 12.5 6.4 2.9 52 4.2 ENE 24 37 13 20 1033.8 1033.9 0.0
20/12:30pm 12.0 5.7 4.0 58 3.6 ENE 26 32 14 17 1034.0 1034.1 0.0
20/12:00pm 11.7 5.1 1.9 51 4.2 ENE 26 35 14 19 1034.2 1034.3 0.0
20/11:30am 11.9 6.1 4.4 60 3.4 ESE 24 32 13 17 1034.2 1034.3 0.0
20/11:00am 11.1 5.8 2.9 57 3.5 ESE 20 26 11 14 1034.2 1034.3 0.0
20/10:30am 10.4 4.6 2.3 57 3.5 ESE 22 30 12 16 1034.1 1034.2 0.0
20/10:00am 10.4 4.3 2.5 58 3.4 E 24 30 13 16 1034.0 1034.1 0.0
20/09:30am 9.6 3.8 2.2 60 3.1 SE 22 30 12 16 1033.9 1034.0 0.0
20/09:00am 8.9 3.1 2.5 64 2.7 SE 22 30 12 16 1033.7 1033.8 1.0
20/08:30am 8.1 3.0 3.2 71 2.1 SE 19 22 10 12 1033.5 1033.6 1.0
20/08:00am 6.8 1.6 2.5 74 1.8 SE 19 22 10 12 1033.2 1033.3 1.0
20/07:30am 6.1 0.7 2.4 77 1.5 ESE 20 24 11 13 1032.7 1032.8 1.0
20/07:00am 5.6 0.2 2.3 79 1.3 SE 20 24 11 13 1032.3 1032.4 1.0
20/06:30am 4.5 -1.4 1.4 80 1.2 SE 22 24 12 13 1031.7 1031.7 1.0
20/06:00am 5.2 -0.8 1.1 75 1.6 SE 22 28 12 15 1031.3 1031.3 1.0
20/05:30am 5.4 -0.6 1.3 75 1.6 SE 22 26 12 14 1030.7 1030.7 1.0
20/05:00am 6.7 1.1 1.2 68 2.2 SSE 20 28 11 15 1030.2 1030.2 1.0
20/04:30am 6.8 0.9 1.5 69 2.1 SSE 22 30 12 16 1030.2 1030.2 1.0
20/04:00am 7.4 1.6 2.1 69 2.2 SSE 22 28 12 15 1030.3 1030.3 1.0
20/03:30am 7.4 1.3 2.5 71 2.0 SSE 24 32 13 17 1030.1 1030.1 1.0
20/03:00am 7.2 1.8 1.3 66 2.4 SSE 19 22 10 12 1029.9 1029.9 1.0
20/02:30am 7.4 1.8 1.5 66 2.4 S 20 26 11 14 1029.9 1029.9 1.0
20/02:00am 7.4 2.0 2.3 70 2.1 S 20 26 11 14 1030.1 1030.1 1.0
20/01:30am 8.3 2.2 2.8 68 2.3 S 24 32 13 17 1030.0 1030.0 1.0
20/01:00am 8.3 2.7 3.4 71 2.1 S 22 32 12 17 1029.6 1029.7 1.0
20/12:30am 8.6 3.0 3.4 70 2.2 S 22 28 12 15 1029.4 1029.5 1.0
20/12:00am 8.9 2.2 3.7 70 2.2 S 28 35 15 19 1028.8 1028.9 1.0
 
Date/Time
EDT
Temp
°C
App
Temp
°C
Dew
Point
Rel
Hum
%
Delta-T
°C
Wind Press
QNH
hPa
Press
MSL
hPa
Rain
since 9 am
mm
Dir
 
Spd
km/h
Gust
km/h
Spd
kts
Gust
kts
19/11:30pm 9.5 1.4 3.3 65 2.7 S 35 48 19 26 1028.3 1028.4 1.0
19/11:05pm 9.3 1.3 3.9 69 2.4 S 35 54 19 29 1028.0 1028.1 1.0
19/11:00pm 9.3 0.1 3.7 68 2.4 SSW 41 54 22 29 1027.9 1028.0 1.0
19/10:30pm 9.5 0.4 4.1 69 2.4 SSW 41 54 22 29 1027.6 1027.7 1.0
19/10:11pm 10.0 1.1 5.2 72 2.2 SSW 41 63 22 34 1027.4 1027.5 1.0
19/10:00pm 10.3 0.8 4.0 65 2.8 SSW 43 57 23 31 1027.2 1027.3 1.0
19/09:41pm 10.2 0.4 5.2 71 2.3 SSW 46 67 25 36 1026.8 1026.9 1.0
19/09:30pm 10.6 1.5 5.8 72 2.2 SW 43 54 23 29 1026.8 1026.9 1.0
19/09:00pm 10.1 1.0 6.1 76 1.8 SSW 43 57 23 31 1026.0 1026.1 1.0
19/08:44pm 9.9 0.2 5.9 76 1.8 SSW 46 67 25 36 1025.4 1025.5 1.0
19/08:30pm 10.3 1.6 6.1 75 2.0 SSW 41 56 22 30 1024.9 1025.0 1.0
19/08:14pm 10.2 1.5 5.8 74 2.0 SSW 41 59 22 32 1024.5 1024.6 1.0
19/08:00pm 9.8 0.9 6.9 82 1.4 SSW 43 59 23 32 1024.3 1024.4 1.0
19/07:30pm 9.2 -1.7 7.2 87 0.9 SW 54 74 29 40 1024.0 1024.1 1.0
19/07:20pm 10.3 0.2 7.2 81 1.5 SW 50 69 27 37 1023.7 1023.8 1.0
19/07:00pm 10.0 0.7 7.4 84 1.2 SW 46 59 25 32 1023.4 1023.5 1.0
19/06:30pm 9.8 1.5 7.7 87 1.0 SW 41 52 22 28 1022.7 1022.8 1.0
19/06:00pm 9.7 2.2 7.8 88 0.9 SW 37 50 20 27 1022.4 1022.4 0.8
19/05:30pm 9.4 0.0 7.3 87 1.0 SSW 46 72 25 39 1021.7 1021.7 0.6
19/05:00pm 10.1 0.7 7.0 81 1.5 SSW 46 70 25 38 1021.2 1021.2 0.2
19/04:52pm 10.2 0.1 7.4 83 1.3 SSW 50 70 27 38 1021.1 1021.1 0.2
19/04:30pm 10.5 0.6 8.1 85 1.2 SSW 50 70 27 38 1021.0 1021.0 0.2
19/04:00pm 11.3 2.5 9.4 88 1.0 SSW 46 69 25 37 1019.2 1019.2 0.2
19/03:53pm 11.9 2.8 9.8 87 1.1 SW 48 69 26 37 1019.9 1019.9 0.2
19/03:52pm 11.8 2.6 9.5 86 1.2 SW 48 69 26 37 1020.1 1020.1 0.2
19/03:30pm 12.9 4.6 9.4 79 1.8 SW 43 54 23 29 1019.7 1019.7 0.2
19/03:00pm 12.8 4.9 9.3 79 1.8 SW 41 52 22 28 1019.0 1019.0 0.2
19/02:30pm 13.8 7.9 11.1 84 1.4 SW 33 43 18 23 1018.8 1018.8 0.2
19/02:00pm 14.1 7.1 11.4 84 1.4 SW 39 46 21 25 1019.5 1019.5 0.2
19/01:30pm 14.4 8.5 12.3 87 1.1 SW 35 41 19 22 1019.6 1019.6 0.2
19/01:07pm 13.6 7.4 11.5 87 1.1 SW 35 44 19 24 1019.6 1019.6 0.2
19/01:00pm 13.3 7.5 11.4 88 1.0 SW 33 44 18 24 1019.5 1019.5 0.2

Other Formats:

Comma delimited format used in spreadsheet applications
http://www.bom.gov.au/fwo/IDT60801/IDT60801.95954.axf

JavaScript Object Notation format (JSON) in row-major order
http://www.bom.gov.au/fwo/IDT60801/IDT60801.95954.json